Flight Track Log - Related Links

Times and Time Zones

All times are in EDT time to prevent confusion due to time zone crossing. See the N935SS flight status page for this flight to view local times or setup timezone preferences in your user account.

Time Position Orientation Groundspeed Altitude Reporting Facility
EDT Latitude Longitude Course Direction KTS MPH feet Rate Location/Type
Thu 10:04:19 AM 41.0333 -73.7333 56° Northeast 207 238 3,000  Level New TRACON
Thu 10:05:19 AM 41.0667 -73.8000 304° West 246 283 5,400 2,700 Climbing New TRACON
Thu 10:06:19 AM 41.1500 -73.8000 360° North 294 338 8,400 2,280 Climbing New TRACON
Thu 10:08:39 AM 41.2464 -73.5719 61° Northeast 331 381 13,000 1,380 Climbing Boston Center
Thu 10:09:00 AM 41.3523 -73.1621 56° Northeast  Level FlightAware
Thu 10:09:39 AM 41.2850 -73.4456 68° East 385 443 13,000  Level Boston Center
Thu 10:10:39 AM 41.3406 -73.2972 63° Northeast 404 465 13,000  Level Boston Center
Thu 10:11:37 AM 41.3936 -73.1678 61° Northeast 399 459 13,000  Level Boston Center
Thu 10:12:37 AM 41.4486 -73.0356 61° Northeast 399 459 13,000  Level Boston Center
Thu 10:13:38 AM 41.5011 -72.9031 62° Northeast 399 459 13,000  Level Boston Center
Thu 10:14:38 AM 41.5558 -72.7703 61° Northeast 399 459 13,000 -149 Level Boston Center
Thu 10:15:39 AM 41.6083 -72.6400 62° Northeast 394 453 12,700 -857 Descending Boston Center
Thu 10:16:16 AM 41.6417 -72.5567 62° Northeast 402 463 11,600 -1,655 Descending Boston Center
Thu 10:16:37 AM 41.6708 -72.5233 40° Northeast 394 453 11,100 -857 Descending Boston Center
Thu 10:16:58 AM 41.6958 -72.4900 45° Northeast 381 438 11,000 -98 Descending Boston Center
Thu 10:17:38 AM 41.7503 -72.4289 40° Northeast 373 429 11,000  Level Boston Center
Thu 10:17:59 AM 41.7753 -72.4011 40° Northeast 373 429 11,000  Level Boston Center
Thu 10:18:38 AM 41.8294 -72.3425 39° Northeast 367 422 11,000  Level Boston Center
Thu 10:18:59 AM 41.8564 -72.3147 38° Northeast 372 428 11,000  Level Boston Center
Thu 10:19:39 AM 41.9022 -72.2617 41° Northeast 372 428 11,000 -247 Level Boston Center
Thu 10:20:12 AM 41.9561 -72.2000 40° Northeast 379 436 10,700 -700 Descending Boston Center
Thu 10:20:39 AM 41.9894 -72.1636 39° Northeast 372 428 10,300 -764 Descending Boston Center
Thu 10:21:07 AM 42.0331 -72.1186 37° Northeast 377 434 10,000 -310 Descending Boston Center
Thu 10:21:37 AM 42.0622 -72.0822 43° Northeast 372 428 10,000  Level Boston Center
Thu 10:22:07 AM 42.1100 -72.0314 38° Northeast 365 420 10,000 -98 Level Boston Center
Thu 10:22:38 AM 42.1431 -71.9922 41° Northeast 359 413 9,900 -885 Descending Boston Center
Thu 10:23:08 AM 42.1764 -71.9556 39° Northeast 301 346 9,100 -1,397 Descending Boston Center
Thu 10:23:51 AM 42.1992 -71.9300 40° Northeast 312 359 8,200 -2,220 Descending Boston Center
Thu 10:24:48 AM 42.2842 -71.8367 39° Northeast 301 346 5,400 -1,613 Descending Boston Center
Thu 10:25:50 AM 42.3442 -71.7686 40° Northeast 290 334 5,000 -295 Descending Boston Center
Thu 10:26:50 AM 42.3856 -71.6953 53° Northeast 267 307 4,800 -966 Descending Boston Center
Thu 10:27:48 AM 42.4181 -71.5936 67° East 267 307 3,100 -1,159 Descending Boston Center
Thu 10:28:18 AM 42.4333 -71.5500 65° Northeast 263 303 3,100 -267 Level KA90
Thu 10:29:18 AM 42.4500 -71.4667 75° East 233 268 2,700 -700 Descending KA90
Thu 10:30:18 AM 42.4667 -71.4000 71° East 176 203 1,700 -905 Descending KA90
Thu 10:31:24 AM 42.4833 -71.3333 71° East 141 162 800 282 Descending KA90
Thu 10:33:51 AM 42.4639 -71.1456 98° East 221 254 2,700 351 Climbing Boston Center
Thu 10:34:49 AM 42.4406 -71.1094 131° Southeast 173 199 2,000 -763 Descending Boston Center
Thu 10:35:49 AM 42.4131 -71.0706 134° Southeast 128 147 1,200 -694 Descending Boston Center
Thu 10:36:50 AM 42.3917 -71.0403 134° Southeast 114 131 600 -248 Descending Boston Center
Thu 10:37:50 AM 42.3939 -71.0458 298° West 84 97 700 149 Climbing Boston Center
Thu 10:38:51 AM 42.4067 -71.0594 322° Northwest 25 29 900 -67 Climbing Boston Center
Thu 10:40:49 AM 42.3897 -71.0372 136° Southeast 39 45 500 -34 Descending Boston Center
Thu 10:41:49 AM 42.3981 -71.0483 315° West 21 24 800 300 Climbing Boston Center

Login

Don't have an account? Register now (free) for customized features, flight alerts, and more!